Latest Coastal Weather Observations for Gabo Island

IDT60701

Issued at 3:21 am EST Monday 27 April 2015 (issued every 10 minutes, with the page automatically refreshed every 10 minutes)

About coastal observations | Map of coastal stations | Coastal observations for TAS | Marine services | Other Formats
Station Details ID: 084016 Name: GABO ISLAND LIGHTHOUSE Lat: -37.57 Lon: 149.92 Height: 15.2 m
Data from the previous 72 hours. | See also: Recent months at Gabo Island
Date/Time
EST
Temp

°C
Wind Pressure Rain
since 9am
mm
Weather Cloud Vis
km
Sea
Height
m
Swell
Dir
 
Speed
knots
Gust
knots
hPa Trend Height
m
Period
s
Dir
27/03:02am 12.2 W 24 34 1015.0 - 2.4 - - - - - - -
27/03:00am 12.1 W 23 34 1014.9 - 2.4 Fine Mostly cloudy 40 2 1.0 - SW
27/02:59am 12.0 W 24 34 1014.9 - 2.4 - - - - - - -
27/02:30am 12.1 W 23 29 1015.0 - 2.4 - - - - - - -
27/02:00am 12.0 W 25 32 1015.1 - 2.4 - - - - - - -
27/01:30am 12.1 W 22 28 1015.3 - 2.4 - - - - - - -
27/01:00am 12.2 W 25 31 1015.4 - 2.4 - - - - - - -
27/12:30am 12.4 W 25 33 1015.2 - 2.4 - - - - - - -
27/12:00am 12.4 W 28 34 1015.2 - 2.4 - - - - - - -
 
Date/Time
EST
Temp

°C
Wind Pressure Rain
since 9am
mm
Weather Cloud Vis
km
Sea
Height
m
Swell
Dir
 
Speed
knots
Gust
knots
hPa Trend Height
m
Period
s
Dir
26/11:30pm 12.3 W 27 36 1015.0 - 2.4 - - - - - - -
26/11:00pm 12.3 W 24 30 1015.4 - 2.4 - - - - - - -
26/10:30pm 12.2 W 22 28 1015.5 - 2.4 - - - - - - -
26/10:00pm 12.2 W 27 33 1015.5 - 2.4 - - - - - - -
26/09:30pm 12.6 W 25 33 1015.4 - 2.4 - - - - - - -
26/09:00pm 12.8 W 24 28 1015.8 - 2.4 Fine Cloudy 10 2 1.0 - SW
26/08:30pm 12.5 WSW 25 32 1015.5 - 2.4 - - - - - - -
26/08:00pm 13.2 W 21 30 1015.0 - 2.4 - - - - - - -
26/07:58pm 13.1 W 20 30 1015.0 - 2.4 - - - - - - -
26/07:30pm 13.0 W 21 27 1014.8 - 2.4 - - - - - - -
26/07:00pm 13.6 W 22 29 1014.7 - 2.4 - - - - - - -
26/06:30pm 13.5 W 22 28 1014.5 - 2.4 - - - - - - -
26/06:00pm 13.5 W 21 27 1014.2 - 2.4 - - - - - - -
26/05:30pm 13.6 WSW 27 33 1013.7 - 2.4 - - - - - - -
26/05:00pm 13.5 WSW 29 35 1013.3 - 2.4 - - - - - - -
26/04:30pm 13.8 W 26 32 1013.1 - 2.4 - - - - - - -
26/04:03pm 13.8 W 25 35 1012.9 - 2.4 - - - - - - -
26/04:00pm 13.8 W 24 31 1012.8 - 2.4 - - - - - - -
26/03:30pm 13.7 W 27 37 1012.6 - 2.4 - - - - - - -
26/03:25pm 13.6 WSW 27 37 1012.6 - 2.4 - - - - - - -
26/03:00pm 13.9 WSW 29 36 1012.3 - 2.4 Fine Mostly cloudy 40 2 1.0 - E
26/02:32pm 14.1 WSW 27 37 1012.2 - 2.4 - - - - - - -
26/02:30pm 14.1 WSW 28 37 1012.1 - 2.4 - - - - - - -
26/02:24pm 13.7 WSW 27 37 1012.2 - 2.4 - - - - - - -
26/02:00pm 13.8 WSW 28 35 1012.0 - 2.4 - - - - - - -
26/01:30pm 13.8 WSW 30 36 1011.5 - 2.4 - - - - - - -
26/01:00pm 13.9 WSW 28 35 1011.5 - 2.0 - - - - - - -
26/12:30pm 14.6 WSW 22 29 1011.5 - 0.6 - - - - - - -
26/12:00pm 16.3 SW 23 28 1011.2 - 0.0 - - - - - - -
26/11:53am 16.2 SW 24 28 1011.2 - 0.0 - - - - - - -
26/11:30am 17.3 SSW 22 27 1011.2 - 0.0 - - - - - - -
26/11:00am 17.5 S 21 26 1011.2 - 0.0 - - - - - - -
26/10:30am 17.5 S 25 29 1011.1 - 0.0 - - - - - - -
26/10:00am 17.3 SSW 23 28 1010.9 - 0.0 - - - - - - -
26/09:30am 17.1 S 24 28 1010.8 - 0.0 - - - - - - -
26/09:00am 16.5 S 23 27 1010.6 - 10.2 Recent precip. Mostly cloudy 40 1 1.0 - S
26/08:30am 16.0 S 25 34 1010.3 - 10.2 - - - - - - -
26/08:08am 14.8 S 22 32 1010.1 - 10.0 - - - - - - -
26/08:00am 16.3 S 24 29 1009.9 - 9.2 - - - - - - -
26/07:30am 16.2 S 22 29 1009.6 - 9.2 - - - - - - -
26/07:00am 16.1 S 26 31 1009.0 - 9.2 - - - - - - -
26/06:30am 16.2 S 25 30 1008.3 - 9.2 - - - - - - -
26/06:00am 15.9 S 23 29 1007.9 - 9.2 - - - - - - -
26/05:30am 15.9 S 26 31 1007.6 - 9.0 - - - - - - -
26/05:07am 16.2 S 25 35 1007.4 - 6.4 - - - - - - -
26/05:00am 16.2 S 22 26 1007.3 - 6.4 - - - - - - -
26/04:50am 16.1 S 22 24 1007.2 - 6.4 - - - - - - -
26/04:30am 13.8 W 11 23 1007.3 - 6.4 - - - - - - -
26/04:00am 13.7 W 21 25 1007.2 - 4.2 - - - - - - -
26/03:30am 13.8 W 20 25 1007.2 - 3.4 - - - - - - -
26/03:00am 14.3 WSW 22 27 1007.5 - 1.8 - - - - - - -
26/02:30am 14.3 WSW 19 25 1007.5 - 0.8 - - - - - - -
26/02:00am 14.0 W 18 23 1007.7 - 0.6 - - - - - - -
26/01:30am 14.0 W 18 23 1007.8 - 0.6 - - - - - - -
26/01:00am 14.3 WSW 18 23 1007.9 - 0.6 - - - - - - -
26/12:30am 14.2 WSW 17 20 1007.9 - 0.6 - - - - - - -
26/12:00am 14.3 W 15 19 1008.0 - 0.6 - - - - - - -
 
Date/Time
EST
Temp

°C
Wind Pressure Rain
since 9am
mm
Weather Cloud Vis
km
Sea
Height
m
Swell
Dir
 
Speed
knots
Gust
knots
hPa Trend Height
m
Period
s
Dir
25/11:30pm 13.7 W 14 16 1008.2 - 0.6 - - - - - - -
25/11:00pm 14.2 W 15 19 1008.5 - 0.6 - - - - - - -
25/10:30pm 14.1 W 12 16 1008.6 - 0.6 - - - - - - -
25/10:00pm 14.1 W 11 16 1008.9 - 0.6 - - - - - - -
25/09:30pm 14.2 WNW 12 16 1008.8 - 0.6 - - - - - - -
25/09:00pm 14.6 W 13 17 1008.5 - 0.4 Rain Cloudy 20 1 1.0 - E
25/08:30pm 14.5 W 11 14 1008.7 - 0.0 - - - - - - -
25/08:00pm 14.4 W 12 14 1008.6 - 0.0 - - - - - - -
25/07:30pm 14.3 WNW 10 13 1008.7 - 0.0 - - - - - - -
25/07:00pm 14.7 W 12 16 1008.7 - 0.0 - - - - - - -
25/06:30pm 16.0 SW 13 16 1008.3 - 0.0 - - - - - - -
25/06:00pm 15.8 WSW 13 15 1007.9 - 0.0 - - - - - - -
25/05:30pm 16.0 WSW 14 18 1007.5 - 0.0 - - - - - - -
25/05:00pm 15.9 WSW 21 25 1007.3 - 0.0 - - - - - - -
25/04:30pm 16.9 SW 23 27 1007.0 - 0.0 - - - - - - -
25/04:00pm 17.5 SSW 15 17 1007.0 - 0.0 - - - - - - -
25/03:30pm 17.5 SSW 14 17 1007.0 - 0.0 - - - - - - -
25/03:00pm 17.7 SSW 14 17 1006.9 - 0.0 Fine Mostly cloudy 40 1 1.0 - E
25/02:30pm 17.8 SSW 13 15 1006.8 - 0.0 - - - - - - -
25/02:00pm 18.0 SSW 11 13 1006.6 - 0.0 - - - - - - -
25/01:30pm 18.2 SSW 11 14 1006.6 - 0.0 - - - - - - -
25/01:00pm 18.2 SSW 10 11 1006.9 - 0.0 - - - - - - -
25/12:30pm 18.5 SW 9 11 1007.4 - 0.0 - - - - - - -
25/12:00pm 19.1 WSW 7 9 1007.6 - 0.0 - - - - - - -
25/11:30am 19.2 WSW 8 9 1007.8 - 0.0 - - - - - - -
25/11:00am 18.8 W 9 10 1007.9 - 0.0 - - - - - - -
25/10:30am 18.7 W 8 11 1007.8 - 0.0 - - - - - - -
25/10:00am 18.0 WNW 9 11 1007.8 - 0.0 - - - - - - -
25/09:30am 17.1 W 9 11 1007.7 - 0.0 - - - - - - -
25/09:00am 16.8 WNW 8 10 1007.4 - 0.0 Fine Mostly clear 40 <0.5 1.0 - E
25/08:30am 16.2 WNW 8 10 1007.3 - 0.0 - - - - - - -
25/08:00am 15.5 WNW 7 9 1007.1 - 0.0 - - - - - - -
25/07:30am 14.9 WNW 8 9 1006.8 - 0.0 - - - - - - -
25/07:00am 14.3 W 7 9 1006.6 - 0.0 - - - - - - -
25/06:30am 14.3 WNW 9 12 1006.5 - 0.0 - - - - - - -
25/06:00am 14.0 WNW 9 11 1006.2 - 0.0 - - - - - - -
25/05:30am 13.9 WNW 8 9 1006.0 - 0.0 - - - - - - -
25/05:00am 14.1 WNW 10 12 1005.9 - 0.0 - - - - - - -
25/04:30am 14.1 WNW 6 8 1005.9 - 0.0 - - - - - - -
25/04:00am 14.6 WNW 7 8 1005.7 - 0.0 - - - - - - -
25/03:30am 15.2 W 10 12 1005.4 - 0.0 - - - - - - -
25/03:00am 15.0 W 8 9 1005.5 - 0.0 Lightning Mostly clear 30 <0.5 1.0 - E
25/02:30am 15.2 W 7 9 1005.6 - 0.0 - - - - - - -
25/02:00am 15.1 W 6 9 1005.4 - 0.0 - - - - - - -
25/01:30am 14.8 WNW 6 8 1005.2 - 0.0 - - - - - - -
25/01:00am 14.2 NW 5 7 1005.2 - 0.0 - - - - - - -
25/12:30am 14.6 WNW 3 4 1005.2 - 0.0 - - - - - - -
25/12:00am 15.3 WSW 5 6 1005.0 - 0.0 - - - - - - -
 
Date/Time
EST
Temp

°C
Wind Pressure Rain
since 9am
mm
Weather Cloud Vis
km
Sea
Height
m
Swell
Dir
 
Speed
knots
Gust
knots
hPa Trend Height
m
Period
s
Dir
24/11:30pm 15.1 W 6 7 1005.0 - 0.0 - - - - - - -
24/11:00pm 15.0 W 6 7 1004.8 - 0.0 - - - - - - -
24/10:30pm 15.2 W 7 8 1004.6 - 0.0 - - - - - - -
24/10:00pm 15.3 W 6 8 1004.8 - 0.0 - - - - - - -
24/09:30pm 15.3 WNW 4 5 1004.7 - 0.0 - - - - - - -
24/09:00pm 15.8 NNE 4 5 1004.5 - 0.0 Fine Mostly clear 30 <0.5 1.0 - E
24/08:30pm 16.2 N 5 6 1004.5 - 0.0 - - - - - - -
24/08:00pm 16.2 N 6 7 1004.2 - 0.0 - - - - - - -
24/07:30pm 16.0 N 6 6 1004.0 - 0.0 - - - - - - -
24/07:00pm 16.5 N 6 7 1004.1 - 0.0 - - - - - - -
24/06:30pm 16.4 WSW 3 5 1003.9 - 0.0 - - - - - - -
24/06:00pm 16.9 WNW 3 4 1003.7 - 0.0 - - - - - - -
24/05:30pm 17.1 W 5 5 1003.5 - 0.0 - - - - - - -
24/05:00pm 17.4 WSW 7 7 1003.2 - 0.0 - - - - - - -
24/04:30pm 17.6 WSW 8 11 1003.1 - 0.0 - - - - - - -
24/04:00pm 17.8 WSW 9 11 1002.9 - 0.0 - - - - - - -
24/03:30pm 17.9 WSW 9 11 1002.7 - 0.0 - - - - - - -
24/03:00pm 18.0 W 8 10 1002.7 - 0.0 Distant precip. Mostly cloudy 40 <0.5 1.0 - E
24/02:30pm 18.1 W 9 11 1002.9 - 0.0 - - - - - - -
24/02:00pm 18.2 WSW 9 12 1003.3 - 0.0 - - - - - - -
24/01:30pm 17.9 SW 12 13 1003.2 - 0.0 - - - - - - -
24/01:00pm 18.0 SW 12 14 1003.4 - 0.0 - - - - - - -
24/12:30pm 18.6 SW 5 6 1003.5 - 0.0 - - - - - - -
24/12:00pm 18.1 SW 5 6 1003.6 - 0.0 - - - - - - -
24/11:30am 18.4 SW 5 6 1003.7 - 0.0 - - - - - - -
24/11:00am 18.4 W 6 9 1003.9 - 0.0 - - - - - - -
24/10:30am 18.9 NNE 11 14 1003.7 - 0.0 - - - - - - -
24/10:00am 18.2 NNE 5 7 1004.1 - 0.0 - - - - - - -
24/09:30am 17.8 N 4 6 1004.4 - 0.0 - - - - - - -
24/09:00am 17.4 NNE 4 5 1004.6 - 0.2 Fine Mostly cloudy 25 <0.5 1.0 - SE
24/08:30am 17.1 NNE 6 7 1004.9 - 0.2 - - - - - - -
24/08:00am 16.4 NNE 6 8 1005.2 - 0.2 - - - - - - -
24/07:30am 16.2 NNE 5 6 1005.2 - 0.2 - - - - - - -
24/07:00am 14.7 CALM 0 0 1005.1 - 0.2 - - - - - - -
24/06:30am 14.5 WNW 3 4 1005.2 - 0.2 - - - - - - -
24/06:00am 14.5 NE 4 5 1005.4 - 0.2 - - - - - - -
24/05:30am 14.2 N 4 4 1005.5 - 0.2 - - - - - - -
24/05:00am 15.0 WNW 5 6 1005.9 - 0.2 - - - - - - -
24/04:30am 15.1 WNW 5 6 1006.0 - 0.2 - - - - - - -
24/04:00am 15.5 NNW 5 7 1006.2 - 0.0 - - - - - - -
24/03:30am 15.3 WNW 8 11 1006.4 - 0.0 - - - - - - -

Other Formats:

Comma delimited format used in spreadsheet applications
http://www.bom.gov.au/fwo/IDT60701/IDT60701.94933.axf

JavaScript Object Notation format (JSON) in row-major order
http://www.bom.gov.au/fwo/IDT60701/IDT60701.94933.json